sensor_id;sensor_type;location;lat;lon;timestamp;P1;durP1;ratioP1;P2;durP2;ratioP2
55015;SDS011;40919;43.236;21.590;2023-03-01T00:00:37;28.90;;;15.45;;
55015;SDS011;40919;43.236;21.590;2023-03-01T00:03:03;27.10;;;16.20;;
55015;SDS011;40919;43.236;21.590;2023-03-01T00:05:28;31.38;;;18.50;;
55015;SDS011;40919;43.236;21.590;2023-03-01T00:07:54;24.75;;;14.88;;
55015;SDS011;40919;43.236;21.590;2023-03-01T00:10:20;30.50;;;17.92;;
55015;SDS011;40919;43.236;21.590;2023-03-01T00:12:46;34.88;;;17.77;;
55015;SDS011;40919;43.236;21.590;2023-03-01T00:15:11;26.95;;;15.13;;
55015;SDS011;40919;43.236;21.590;2023-03-01T00:17:37;28.63;;;16.60;;
55015;SDS011;40919;43.236;21.590;2023-03-01T00:20:03;25.60;;;16.50;;
55015;SDS011;40919;43.236;21.590;2023-03-01T00:22:33;31.40;;;18.33;;
55015;SDS011;40919;43.236;21.590;2023-03-01T00:24:59;29.17;;;17.33;;
55015;SDS011;40919;43.236;21.590;2023-03-01T00:27:24;40.63;;;20.52;;
55015;SDS011;40919;43.236;21.590;2023-03-01T00:29:50;38.30;;;18.83;;
55015;SDS011;40919;43.236;21.590;2023-03-01T00:32:17;29.55;;;17.55;;
55015;SDS011;40919;43.236;21.590;2023-03-01T00:34:42;31.27;;;18.67;;
55015;SDS011;40919;43.236;21.590;2023-03-01T00:37:19;35.47;;;16.85;;
55015;SDS011;40919;43.236;21.590;2023-03-01T00:39:48;38.58;;;19.48;;
55015;SDS011;40919;43.236;21.590;2023-03-01T00:42:15;40.95;;;23.27;;
55015;SDS011;40919;43.236;21.590;2023-03-01T00:44:41;39.33;;;23.67;;
55015;SDS011;40919;43.236;21.590;2023-03-01T00:47:07;28.30;;;18.63;;
55015;SDS011;40919;43.236;21.590;2023-03-01T00:49:33;30.50;;;21.35;;
55015;SDS011;40919;43.236;21.590;2023-03-01T00:52:00;32.95;;;21.45;;
55015;SDS011;40919;43.236;21.590;2023-03-01T00:54:25;27.98;;;17.10;;
55015;SDS011;40919;43.236;21.590;2023-03-01T00:56:51;23.20;;;14.90;;
55015;SDS011;40919;43.236;21.590;2023-03-01T00:59:17;22.38;;;14.50;;
55015;SDS011;40919;43.236;21.590;2023-03-01T01:01:42;23.50;;;14.25;;
55015;SDS011;40919;43.236;21.590;2023-03-01T01:04:09;20.65;;;13.00;;
55015;SDS011;40919;43.236;21.590;2023-03-01T01:06:46;22.88;;;12.73;;
55015;SDS011;40919;43.236;21.590;2023-03-01T01:09:13;19.98;;;11.88;;
55015;SDS011;40919;43.236;21.590;2023-03-01T01:11:47;24.67;;;12.10;;
55015;SDS011;40919;43.236;21.590;2023-03-01T01:14:14;22.92;;;13.30;;
55015;SDS011;40919;43.236;21.590;2023-03-01T01:16:41;20.83;;;13.32;;
55015;SDS011;40919;43.236;21.590;2023-03-01T01:19:06;23.38;;;14.23;;
55015;SDS011;40919;43.236;21.590;2023-03-01T01:21:32;24.13;;;13.45;;
55015;SDS011;40919;43.236;21.590;2023-03-01T01:23:58;22.25;;;13.13;;
55015;SDS011;40919;43.236;21.590;2023-03-01T01:26:25;27.63;;;14.35;;
55015;SDS011;40919;43.236;21.590;2023-03-01T01:28:53;22.63;;;13.13;;
55015;SDS011;40919;43.236;21.590;2023-03-01T01:31:20;20.55;;;13.30;;
55015;SDS011;40919;43.236;21.590;2023-03-01T01:33:48;25.02;;;13.65;;
55015;SDS011;40919;43.236;21.590;2023-03-01T01:36:14;24.83;;;12.55;;
55015;SDS011;40919;43.236;21.590;2023-03-01T01:38:41;21.17;;;11.73;;
55015;SDS011;40919;43.236;21.590;2023-03-01T01:41:07;18.13;;;10.95;;
55015;SDS011;40919;43.236;21.590;2023-03-01T01:43:41;19.45;;;11.82;;
55015;SDS011;40919;43.236;21.590;2023-03-01T01:48:44;27.10;;;13.85;;
55015;SDS011;40919;43.236;21.590;2023-03-01T01:51:23;24.48;;;14.48;;
55015;SDS011;40919;43.236;21.590;2023-03-01T01:54:14;24.38;;;12.50;;
55015;SDS011;40919;43.236;21.590;2023-03-01T01:56:57;27.35;;;12.75;;
55015;SDS011;40919;43.236;21.590;2023-03-01T01:59:27;19.90;;;12.45;;
55015;SDS011;40919;43.236;21.590;2023-03-01T02:01:56;21.30;;;13.52;;
55015;SDS011;40919;43.236;21.590;2023-03-01T02:04:25;22.00;;;12.88;;
55015;SDS011;40919;43.236;21.590;2023-03-01T02:06:55;19.80;;;12.73;;
55015;SDS011;40919;43.236;21.590;2023-03-01T02:09:26;21.55;;;13.90;;
55015;SDS011;40919;43.236;21.590;2023-03-01T02:11:53;23.60;;;12.18;;
55015;SDS011;40919;43.236;21.590;2023-03-01T02:14:19;21.70;;;12.70;;
55015;SDS011;40919;43.236;21.590;2023-03-01T02:16:44;34.45;;;15.38;;
55015;SDS011;40919;43.236;21.590;2023-03-01T02:19:13;51.55;;;22.40;;
55015;SDS011;40919;43.236;21.590;2023-03-01T02:21:52;45.25;;;19.88;;
55015;SDS011;40919;43.236;21.590;2023-03-01T02:24:34;44.40;;;19.38;;
55015;SDS011;40919;43.236;21.590;2023-03-01T02:27:18;36.40;;;16.95;;
55015;SDS011;40919;43.236;21.590;2023-03-01T02:29:47;28.05;;;13.18;;
55015;SDS011;40919;43.236;21.590;2023-03-01T02:32:12;33.33;;;16.73;;
55015;SDS011;40919;43.236;21.590;2023-03-01T02:34:40;36.92;;;19.35;;
55015;SDS011;40919;43.236;21.590;2023-03-01T02:37:08;34.33;;;17.83;;
55015;SDS011;40919;43.236;21.590;2023-03-01T02:39:40;25.00;;;13.75;;
55015;SDS011;40919;43.236;21.590;2023-03-01T02:42:14;32.47;;;14.07;;
55015;SDS011;40919;43.236;21.590;2023-03-01T02:44:44;32.92;;;17.67;;
55015;SDS011;40919;43.236;21.590;2023-03-01T02:47:10;39.28;;;20.15;;
55015;SDS011;40919;43.236;21.590;2023-03-01T02:49:36;33.45;;;16.98;;
55015;SDS011;40919;43.236;21.590;2023-03-01T02:55:26;27.45;;;12.13;;
55015;SDS011;40919;43.236;21.590;2023-03-01T02:57:46;21.73;;;13.52;;
55015;SDS011;40919;43.236;21.590;2023-03-01T03:00:17;29.33;;;14.57;;
55015;SDS011;40919;43.236;21.590;2023-03-01T03:02:46;26.90;;;14.02;;
55015;SDS011;40919;43.236;21.590;2023-03-01T03:05:18;28.70;;;15.45;;
55015;SDS011;40919;43.236;21.590;2023-03-01T03:07:47;28.70;;;15.35;;
55015;SDS011;40919;43.236;21.590;2023-03-01T03:10:16;20.92;;;12.82;;
55015;SDS011;40919;43.236;21.590;2023-03-01T03:12:48;35.03;;;20.08;;
55015;SDS011;40919;43.236;21.590;2023-03-01T03:15:19;33.53;;;19.25;;
55015;SDS011;40919;43.236;21.590;2023-03-01T03:17:45;26.08;;;15.15;;
55015;SDS011;40919;43.236;21.590;2023-03-01T03:20:12;24.60;;;15.38;;
55015;SDS011;40919;43.236;21.590;2023-03-01T03:22:44;28.70;;;15.43;;
55015;SDS011;40919;43.236;21.590;2023-03-01T03:25:13;25.45;;;14.68;;
55015;SDS011;40919;43.236;21.590;2023-03-01T03:27:41;29.02;;;15.40;;
55015;SDS011;40919;43.236;21.590;2023-03-01T03:30:11;28.20;;;15.20;;
55015;SDS011;40919;43.236;21.590;2023-03-01T03:32:41;18.70;;;11.70;;
55015;SDS011;40919;43.236;21.590;2023-03-01T03:35:17;21.27;;;12.85;;
55015;SDS011;40919;43.236;21.590;2023-03-01T03:37:49;23.55;;;14.65;;
55015;SDS011;40919;43.236;21.590;2023-03-01T03:40:29;35.50;;;18.48;;
55015;SDS011;40919;43.236;21.590;2023-03-01T03:42:56;35.90;;;18.25;;
55015;SDS011;40919;43.236;21.590;2023-03-01T03:45:21;45.80;;;19.30;;
55015;SDS011;40919;43.236;21.590;2023-03-01T03:47:47;37.90;;;18.25;;
55015;SDS011;40919;43.236;21.590;2023-03-01T03:50:14;50.00;;;22.70;;
55015;SDS011;40919;43.236;21.590;2023-03-01T03:52:41;49.38;;;20.95;;
55015;SDS011;40919;43.236;21.590;2023-03-01T03:55:08;53.25;;;21.17;;
55015;SDS011;40919;43.236;21.590;2023-03-01T03:57:36;44.13;;;20.75;;
55015;SDS011;40919;43.236;21.590;2023-03-01T04:00:02;34.95;;;17.83;;
55015;SDS011;40919;43.236;21.590;2023-03-01T04:02:30;29.92;;;15.60;;
55015;SDS011;40919;43.236;21.590;2023-03-01T04:04:56;18.55;;;12.82;;
55015;SDS011;40919;43.236;21.590;2023-03-01T04:07:22;20.42;;;12.85;;
55015;SDS011;40919;43.236;21.590;2023-03-01T04:09:47;20.20;;;11.82;;
55015;SDS011;40919;43.236;21.590;2023-03-01T04:12:13;22.67;;;13.02;;
55015;SDS011;40919;43.236;21.590;2023-03-01T04:14:39;17.70;;;12.10;;
55015;SDS011;40919;43.236;21.590;2023-03-01T04:17:05;22.90;;;11.85;;
55015;SDS011;40919;43.236;21.590;2023-03-01T04:19:31;24.48;;;12.52;;
55015;SDS011;40919;43.236;21.590;2023-03-01T04:22:01;24.65;;;14.98;;
55015;SDS011;40919;43.236;21.590;2023-03-01T04:24:34;21.30;;;13.77;;
55015;SDS011;40919;43.236;21.590;2023-03-01T04:27:00;25.83;;;13.95;;
55015;SDS011;40919;43.236;21.590;2023-03-01T04:29:26;24.42;;;14.50;;
55015;SDS011;40919;43.236;21.590;2023-03-01T04:31:52;22.17;;;13.38;;
55015;SDS011;40919;43.236;21.590;2023-03-01T04:34:18;20.65;;;13.32;;
55015;SDS011;40919;43.236;21.590;2023-03-01T04:36:44;24.80;;;14.40;;
55015;SDS011;40919;43.236;21.590;2023-03-01T04:39:10;21.13;;;13.25;;
55015;SDS011;40919;43.236;21.590;2023-03-01T04:41:38;21.40;;;13.60;;
55015;SDS011;40919;43.236;21.590;2023-03-01T04:44:05;26.55;;;15.00;;
55015;SDS011;40919;43.236;21.590;2023-03-01T04:46:31;34.90;;;19.58;;
55015;SDS011;40919;43.236;21.590;2023-03-01T04:48:57;28.05;;;15.15;;
55015;SDS011;40919;43.236;21.590;2023-03-01T04:51:23;28.75;;;17.88;;
55015;SDS011;40919;43.236;21.590;2023-03-01T04:53:49;24.25;;;16.33;;
55015;SDS011;40919;43.236;21.590;2023-03-01T04:56:15;25.05;;;16.60;;
55015;SDS011;40919;43.236;21.590;2023-03-01T04:58:43;33.53;;;19.10;;
55015;SDS011;40919;43.236;21.590;2023-03-01T05:01:13;31.25;;;18.20;;
55015;SDS011;40919;43.236;21.590;2023-03-01T05:03:42;32.10;;;20.13;;
55015;SDS011;40919;43.236;21.590;2023-03-01T05:06:12;43.47;;;25.42;;
55015;SDS011;40919;43.236;21.590;2023-03-01T05:08:39;38.53;;;21.98;;
55015;SDS011;40919;43.236;21.590;2023-03-01T05:11:06;21.20;;;12.95;;
55015;SDS011;40919;43.236;21.590;2023-03-01T05:13:34;20.60;;;13.02;;
55015;SDS011;40919;43.236;21.590;2023-03-01T05:16:01;23.67;;;13.57;;
55015;SDS011;40919;43.236;21.590;2023-03-01T05:18:28;21.75;;;14.07;;
55015;SDS011;40919;43.236;21.590;2023-03-01T05:21:00;24.42;;;15.65;;
55015;SDS011;40919;43.236;21.590;2023-03-01T05:23:29;25.13;;;15.68;;
55015;SDS011;40919;43.236;21.590;2023-03-01T05:25:59;29.42;;;17.58;;
55015;SDS011;40919;43.236;21.590;2023-03-01T05:28:26;28.48;;;17.75;;
55015;SDS011;40919;43.236;21.590;2023-03-01T05:30:53;25.42;;;17.23;;
55015;SDS011;40919;43.236;21.590;2023-03-01T05:33:19;20.33;;;12.75;;
55015;SDS011;40919;43.236;21.590;2023-03-01T05:35:47;19.33;;;14.20;;
55015;SDS011;40919;43.236;21.590;2023-03-01T05:38:14;21.95;;;15.60;;
55015;SDS011;40919;43.236;21.590;2023-03-01T05:40:41;29.08;;;17.58;;
55015;SDS011;40919;43.236;21.590;2023-03-01T05:43:08;27.63;;;16.85;;
55015;SDS011;40919;43.236;21.590;2023-03-01T05:45:35;27.02;;;15.30;;
55015;SDS011;40919;43.236;21.590;2023-03-01T05:48:03;30.73;;;18.67;;
55015;SDS011;40919;43.236;21.590;2023-03-01T05:50:32;25.85;;;15.48;;
55015;SDS011;40919;43.236;21.590;2023-03-01T05:53:01;24.70;;;13.57;;
55015;SDS011;40919;43.236;21.590;2023-03-01T05:55:30;20.98;;;14.07;;
55015;SDS011;40919;43.236;21.590;2023-03-01T05:58:00;20.70;;;14.00;;
55015;SDS011;40919;43.236;21.590;2023-03-01T06:00:27;19.70;;;12.48;;
55015;SDS011;40919;43.236;21.590;2023-03-01T06:02:54;32.53;;;19.73;;
55015;SDS011;40919;43.236;21.590;2023-03-01T06:05:21;46.13;;;26.75;;
55015;SDS011;40919;43.236;21.590;2023-03-01T06:07:47;64.82;;;32.67;;
55015;SDS011;40919;43.236;21.590;2023-03-01T06:10:13;72.63;;;37.78;;
55015;SDS011;40919;43.236;21.590;2023-03-01T06:12:40;63.03;;;33.10;;
55015;SDS011;40919;43.236;21.590;2023-03-01T06:15:07;85.70;;;42.83;;
55015;SDS011;40919;43.236;21.590;2023-03-01T06:17:37;40.70;;;23.75;;
55015;SDS011;40919;43.236;21.590;2023-03-01T06:20:04;40.40;;;23.17;;
55015;SDS011;40919;43.236;21.590;2023-03-01T06:22:31;44.03;;;24.63;;
55015;SDS011;40919;43.236;21.590;2023-03-01T06:24:57;42.00;;;23.65;;
55015;SDS011;40919;43.236;21.590;2023-03-01T06:27:23;44.35;;;26.77;;
55015;SDS011;40919;43.236;21.590;2023-03-01T06:29:49;48.70;;;24.40;;
55015;SDS011;40919;43.236;21.590;2023-03-01T06:32:14;45.22;;;26.20;;
55015;SDS011;40919;43.236;21.590;2023-03-01T06:34:40;34.70;;;21.63;;
55015;SDS011;40919;43.236;21.590;2023-03-01T06:37:07;36.25;;;20.95;;
55015;SDS011;40919;43.236;21.590;2023-03-01T06:39:32;31.98;;;21.05;;
55015;SDS011;40919;43.236;21.590;2023-03-01T06:41:58;52.63;;;28.95;;
55015;SDS011;40919;43.236;21.590;2023-03-01T06:44:25;52.15;;;29.60;;
55015;SDS011;40919;43.236;21.590;2023-03-01T06:46:51;86.40;;;44.67;;
55015;SDS011;40919;43.236;21.590;2023-03-01T06:49:17;79.80;;;42.13;;
55015;SDS011;40919;43.236;21.590;2023-03-01T06:51:43;102.32;;;52.15;;
55015;SDS011;40919;43.236;21.590;2023-03-01T06:54:09;180.52;;;82.60;;
55015;SDS011;40919;43.236;21.590;2023-03-01T06:56:35;144.68;;;71.13;;
55015;SDS011;40919;43.236;21.590;2023-03-01T06:59:01;70.20;;;42.50;;
55015;SDS011;40919;43.236;21.590;2023-03-01T07:01:27;72.65;;;38.03;;
55015;SDS011;40919;43.236;21.590;2023-03-01T07:03:53;76.18;;;43.47;;
55015;SDS011;40919;43.236;21.590;2023-03-01T07:06:19;54.30;;;32.38;;
55015;SDS011;40919;43.236;21.590;2023-03-01T07:08:45;52.72;;;32.20;;
55015;SDS011;40919;43.236;21.590;2023-03-01T07:11:11;74.22;;;41.42;;
55015;SDS011;40919;43.236;21.590;2023-03-01T07:13:37;69.90;;;45.15;;
55015;SDS011;40919;43.236;21.590;2023-03-01T07:16:03;67.65;;;42.13;;
55015;SDS011;40919;43.236;21.590;2023-03-01T07:18:29;60.42;;;37.08;;
55015;SDS011;40919;43.236;21.590;2023-03-01T07:20:55;57.90;;;33.75;;
55015;SDS011;40919;43.236;21.590;2023-03-01T07:23:21;68.07;;;39.72;;
55015;SDS011;40919;43.236;21.590;2023-03-01T07:25:53;79.30;;;47.92;;
55015;SDS011;40919;43.236;21.590;2023-03-01T07:28:20;73.13;;;41.65;;
55015;SDS011;40919;43.236;21.590;2023-03-01T07:30:47;47.53;;;30.60;;
55015;SDS011;40919;43.236;21.590;2023-03-01T07:33:13;39.75;;;25.63;;
55015;SDS011;40919;43.236;21.590;2023-03-01T07:35:39;41.95;;;28.52;;
55015;SDS011;40919;43.236;21.590;2023-03-01T07:38:05;38.72;;;25.10;;
55015;SDS011;40919;43.236;21.590;2023-03-01T07:40:30;42.30;;;26.00;;
55015;SDS011;40919;43.236;21.590;2023-03-01T07:42:56;42.72;;;28.42;;
55015;SDS011;40919;43.236;21.590;2023-03-01T07:45:23;48.15;;;30.98;;
55015;SDS011;40919;43.236;21.590;2023-03-01T07:47:50;37.40;;;28.80;;
55015;SDS011;40919;43.236;21.590;2023-03-01T07:50:17;59.30;;;37.85;;
55015;SDS011;40919;43.236;21.590;2023-03-01T07:52:47;66.45;;;42.30;;
55015;SDS011;40919;43.236;21.590;2023-03-01T07:55:14;60.13;;;36.83;;
55015;SDS011;40919;43.236;21.590;2023-03-01T07:57:41;57.25;;;37.78;;
55015;SDS011;40919;43.236;21.590;2023-03-01T08:00:07;49.97;;;34.30;;
55015;SDS011;40919;43.236;21.590;2023-03-01T08:02:35;68.47;;;41.40;;
55015;SDS011;40919;43.236;21.590;2023-03-01T08:05:00;63.90;;;38.67;;
55015;SDS011;40919;43.236;21.590;2023-03-01T08:07:26;45.30;;;28.30;;
55015;SDS011;40919;43.236;21.590;2023-03-01T08:09:52;55.50;;;32.03;;
55015;SDS011;40919;43.236;21.590;2023-03-01T08:12:18;59.95;;;38.03;;
55015;SDS011;40919;43.236;21.590;2023-03-01T08:14:43;54.35;;;34.60;;
55015;SDS011;40919;43.236;21.590;2023-03-01T08:17:10;42.58;;;27.58;;
55015;SDS011;40919;43.236;21.590;2023-03-01T08:19:36;58.20;;;35.90;;
55015;SDS011;40919;43.236;21.590;2023-03-01T08:22:02;59.83;;;38.78;;
55015;SDS011;40919;43.236;21.590;2023-03-01T08:24:28;42.40;;;28.30;;
55015;SDS011;40919;43.236;21.590;2023-03-01T08:26:54;44.85;;;29.38;;
55015;SDS011;40919;43.236;21.590;2023-03-01T08:29:20;54.85;;;37.13;;
55015;SDS011;40919;43.236;21.590;2023-03-01T08:31:46;48.92;;;32.75;;
55015;SDS011;40919;43.236;21.590;2023-03-01T08:34:14;45.00;;;27.60;;
55015;SDS011;40919;43.236;21.590;2023-03-01T08:36:42;55.63;;;35.13;;
55015;SDS011;40919;43.236;21.590;2023-03-01T08:39:10;48.13;;;32.00;;
55015;SDS011;40919;43.236;21.590;2023-03-01T08:41:37;30.65;;;22.17;;
55015;SDS011;40919;43.236;21.590;2023-03-01T08:44:03;43.40;;;26.05;;
55015;SDS011;40919;43.236;21.590;2023-03-01T08:46:39;35.45;;;25.00;;
55015;SDS011;40919;43.236;21.590;2023-03-01T08:49:16;34.50;;;22.73;;
55015;SDS011;40919;43.236;21.590;2023-03-01T08:51:43;30.30;;;20.00;;
55015;SDS011;40919;43.236;21.590;2023-03-01T08:54:10;32.78;;;22.63;;
55015;SDS011;40919;43.236;21.590;2023-03-01T08:56:37;54.88;;;36.65;;
55015;SDS011;40919;43.236;21.590;2023-03-01T08:59:03;49.45;;;32.72;;
55015;SDS011;40919;43.236;21.590;2023-03-01T09:01:29;35.55;;;23.05;;
55015;SDS011;40919;43.236;21.590;2023-03-01T09:03:55;38.65;;;23.50;;
55015;SDS011;40919;43.236;21.590;2023-03-01T09:06:24;44.67;;;26.75;;
55015;SDS011;40919;43.236;21.590;2023-03-01T09:08:50;47.38;;;29.35;;
55015;SDS011;40919;43.236;21.590;2023-03-01T09:11:17;34.28;;;25.70;;
55015;SDS011;40919;43.236;21.590;2023-03-01T09:13:45;36.55;;;22.85;;
55015;SDS011;40919;43.236;21.590;2023-03-01T09:16:13;39.38;;;27.13;;
55015;SDS011;40919;43.236;21.590;2023-03-01T09:18:40;32.63;;;23.00;;
55015;SDS011;40919;43.236;21.590;2023-03-01T09:21:06;32.03;;;22.25;;
55015;SDS011;40919;43.236;21.590;2023-03-01T09:23:35;32.40;;;22.55;;
55015;SDS011;40919;43.236;21.590;2023-03-01T09:26:02;30.45;;;20.42;;
55015;SDS011;40919;43.236;21.590;2023-03-01T09:28:28;37.70;;;22.30;;
55015;SDS011;40919;43.236;21.590;2023-03-01T09:30:57;32.90;;;19.27;;
55015;SDS011;40919;43.236;21.590;2023-03-01T09:33:23;33.30;;;20.38;;
55015;SDS011;40919;43.236;21.590;2023-03-01T09:35:49;22.63;;;15.93;;
55015;SDS011;40919;43.236;21.590;2023-03-01T09:38:15;23.17;;;15.57;;
55015;SDS011;40919;43.236;21.590;2023-03-01T09:40:42;24.10;;;17.23;;
55015;SDS011;40919;43.236;21.590;2023-03-01T09:43:13;39.22;;;23.25;;
55015;SDS011;40919;43.236;21.590;2023-03-01T09:48:11;35.35;;;19.58;;
55015;SDS011;40919;43.236;21.590;2023-03-01T09:50:39;36.20;;;19.23;;
55015;SDS011;40919;43.236;21.590;2023-03-01T09:53:09;42.80;;;22.55;;
55015;SDS011;40919;43.236;21.590;2023-03-01T09:55:38;41.45;;;24.90;;
55015;SDS011;40919;43.236;21.590;2023-03-01T10:00:50;48.35;;;25.92;;
55015;SDS011;40919;43.236;21.590;2023-03-01T10:03:17;39.60;;;23.10;;
55015;SDS011;40919;43.236;21.590;2023-03-01T10:10:54;31.73;;;20.90;;
55015;SDS011;40919;43.236;21.590;2023-03-01T10:15:54;25.90;;;17.23;;
55015;SDS011;40919;43.236;21.590;2023-03-01T10:18:24;24.80;;;15.95;;
55015;SDS011;40919;43.236;21.590;2023-03-01T10:21:02;31.30;;;22.52;;
55015;SDS011;40919;43.236;21.590;2023-03-01T10:23:32;31.80;;;19.20;;
55015;SDS011;40919;43.236;21.590;2023-03-01T10:26:24;27.88;;;17.65;;
55015;SDS011;40919;43.236;21.590;2023-03-01T10:31:19;22.50;;;16.45;;
55015;SDS011;40919;43.236;21.590;2023-03-01T10:33:47;28.35;;;17.50;;
55015;SDS011;40919;43.236;21.590;2023-03-01T10:36:16;31.33;;;22.23;;
55015;SDS011;40919;43.236;21.590;2023-03-01T10:41:17;27.70;;;18.95;;
55015;SDS011;40919;43.236;21.590;2023-03-01T10:49:15;24.52;;;15.65;;
55015;SDS011;40919;43.236;21.590;2023-03-01T10:51:46;24.80;;;16.20;;
55015;SDS011;40919;43.236;21.590;2023-03-01T10:54:30;28.55;;;18.35;;
55015;SDS011;40919;43.236;21.590;2023-03-01T10:56:58;28.77;;;19.27;;
55015;SDS011;40919;43.236;21.590;2023-03-01T10:59:35;27.55;;;18.83;;
55015;SDS011;40919;43.236;21.590;2023-03-01T11:04:28;35.25;;;22.05;;
55015;SDS011;40919;43.236;21.590;2023-03-01T11:06:58;48.83;;;25.23;;
55015;SDS011;40919;43.236;21.590;2023-03-01T11:09:24;45.53;;;27.63;;
55015;SDS011;40919;43.236;21.590;2023-03-01T11:11:53;25.02;;;18.25;;
55015;SDS011;40919;43.236;21.590;2023-03-01T11:14:21;30.75;;;20.35;;
55015;SDS011;40919;43.236;21.590;2023-03-01T11:16:57;24.10;;;17.83;;
55015;SDS011;40919;43.236;21.590;2023-03-01T11:19:49;35.00;;;21.65;;
55015;SDS011;40919;43.236;21.590;2023-03-01T11:22:59;35.30;;;23.13;;
55015;SDS011;40919;43.236;21.590;2023-03-01T11:25:37;34.67;;;24.85;;
55015;SDS011;40919;43.236;21.590;2023-03-01T11:28:07;33.70;;;24.20;;
55015;SDS011;40919;43.236;21.590;2023-03-01T11:30:39;33.03;;;22.92;;
55015;SDS011;40919;43.236;21.590;2023-03-01T11:33:18;30.10;;;20.58;;
55015;SDS011;40919;43.236;21.590;2023-03-01T11:39:03;25.10;;;17.05;;
55015;SDS011;40919;43.236;21.590;2023-03-01T12:26:34;39.05;;;24.42;;
55015;SDS011;40919;43.236;21.590;2023-03-01T12:31:31;50.90;;;29.48;;
55015;SDS011;40919;43.236;21.590;2023-03-01T12:45:18;60.78;;;33.20;;
55015;SDS011;40919;43.236;21.590;2023-03-01T12:51:18;59.97;;;29.40;;
55015;SDS011;40919;43.236;21.590;2023-03-01T12:53:50;51.45;;;27.90;;
55015;SDS011;40919;43.236;21.590;2023-03-01T12:56:21;43.75;;;25.83;;
55015;SDS011;40919;43.236;21.590;2023-03-01T13:17:49;37.72;;;23.67;;
55015;SDS011;40919;43.236;21.590;2023-03-01T13:21:05;32.28;;;22.05;;
55015;SDS011;40919;43.236;21.590;2023-03-01T13:23:11;30.95;;;19.10;;
55015;SDS011;40919;43.236;21.590;2023-03-01T13:31:02;33.17;;;19.92;;
55015;SDS011;40919;43.236;21.590;2023-03-01T13:36:05;46.00;;;28.77;;
55015;SDS011;40919;43.236;21.590;2023-03-01T13:38:37;38.60;;;25.45;;
55015;SDS011;40919;43.236;21.590;2023-03-01T13:41:13;49.67;;;30.98;;
55015;SDS011;40919;43.236;21.590;2023-03-01T13:43:41;47.30;;;30.23;;
55015;SDS011;40919;43.236;21.590;2023-03-01T13:46:20;81.50;;;44.50;;
55015;SDS011;40919;43.236;21.590;2023-03-01T13:48:52;61.70;;;33.00;;
55015;SDS011;40919;43.236;21.590;2023-03-01T13:51:25;51.45;;;32.08;;
55015;SDS011;40919;43.236;21.590;2023-03-01T13:53:52;34.85;;;21.95;;
55015;SDS011;40919;43.236;21.590;2023-03-01T13:56:24;35.38;;;25.67;;
55015;SDS011;40919;43.236;21.590;2023-03-01T14:03:47;42.60;;;27.98;;
55015;SDS011;40919;43.236;21.590;2023-03-01T14:06:15;36.55;;;24.45;;
55015;SDS011;40919;43.236;21.590;2023-03-01T14:08:45;50.83;;;32.83;;
55015;SDS011;40919;43.236;21.590;2023-03-01T14:17:00;44.15;;;34.03;;
55015;SDS011;40919;43.236;21.590;2023-03-01T14:19:27;48.72;;;37.22;;
55015;SDS011;40919;43.236;21.590;2023-03-01T14:22:05;55.85;;;42.28;;
55015;SDS011;40919;43.236;21.590;2023-03-01T14:24:56;79.85;;;61.67;;
55015;SDS011;40919;43.236;21.590;2023-03-01T14:27:25;62.97;;;42.72;;
55015;SDS011;40919;43.236;21.590;2023-03-01T14:29:59;83.05;;;59.00;;
55015;SDS011;40919;43.236;21.590;2023-03-01T14:32:29;71.50;;;49.75;;
55015;SDS011;40919;43.236;21.590;2023-03-01T14:34:58;40.83;;;29.48;;
55015;SDS011;40919;43.236;21.590;2023-03-01T14:39:55;50.90;;;35.70;;
55015;SDS011;40919;43.236;21.590;2023-03-01T14:42:22;47.47;;;34.63;;
55015;SDS011;40919;43.236;21.590;2023-03-01T14:44:52;61.75;;;46.75;;
55015;SDS011;40919;43.236;21.590;2023-03-01T14:47:33;47.40;;;32.47;;
55015;SDS011;40919;43.236;21.590;2023-03-01T14:50:08;50.85;;;32.15;;
55015;SDS011;40919;43.236;21.590;2023-03-01T14:52:56;37.67;;;27.17;;
55015;SDS011;40919;43.236;21.590;2023-03-01T14:55:25;33.95;;;24.70;;
55015;SDS011;40919;43.236;21.590;2023-03-01T14:57:57;39.45;;;29.83;;
55015;SDS011;40919;43.236;21.590;2023-03-01T15:00:27;44.03;;;29.15;;
55015;SDS011;40919;43.236;21.590;2023-03-01T15:02:55;38.38;;;26.13;;
55015;SDS011;40919;43.236;21.590;2023-03-01T15:05:28;45.03;;;30.17;;
55015;SDS011;40919;43.236;21.590;2023-03-01T15:07:56;46.92;;;33.25;;
55015;SDS011;40919;43.236;21.590;2023-03-01T15:10:27;39.17;;;29.25;;
55015;SDS011;40919;43.236;21.590;2023-03-01T15:12:56;41.00;;;30.33;;
55015;SDS011;40919;43.236;21.590;2023-03-01T15:15:36;39.47;;;27.85;;
55015;SDS011;40919;43.236;21.590;2023-03-01T15:20:40;42.83;;;29.25;;
55015;SDS011;40919;43.236;21.590;2023-03-01T15:23:12;84.63;;;62.40;;
55015;SDS011;40919;43.236;21.590;2023-03-01T15:25:53;101.50;;;72.28;;
55015;SDS011;40919;43.236;21.590;2023-03-01T15:28:24;96.28;;;68.13;;
55015;SDS011;40919;43.236;21.590;2023-03-01T15:33:45;76.80;;;47.78;;
55015;SDS011;40919;43.236;21.590;2023-03-01T15:36:45;72.20;;;44.05;;
55015;SDS011;40919;43.236;21.590;2023-03-01T15:39:22;67.00;;;42.30;;
55015;SDS011;40919;43.236;21.590;2023-03-01T15:43:05;70.30;;;44.00;;
55015;SDS011;40919;43.236;21.590;2023-03-01T15:47:46;59.58;;;36.83;;
55015;SDS011;40919;43.236;21.590;2023-03-01T15:52:47;51.88;;;33.05;;
55015;SDS011;40919;43.236;21.590;2023-03-01T15:55:21;68.78;;;45.08;;
55015;SDS011;40919;43.236;21.590;2023-03-01T16:00:28;114.28;;;68.88;;
55015;SDS011;40919;43.236;21.590;2023-03-01T16:02:54;92.28;;;59.08;;
55015;SDS011;40919;43.236;21.590;2023-03-01T16:05:31;82.68;;;53.67;;
55015;SDS011;40919;43.236;21.590;2023-03-01T16:07:59;100.20;;;63.25;;
55015;SDS011;40919;43.236;21.590;2023-03-01T16:10:25;104.63;;;69.40;;
55015;SDS011;40919;43.236;21.590;2023-03-01T16:12:52;125.13;;;76.78;;
55015;SDS011;40919;43.236;21.590;2023-03-01T16:17:46;72.45;;;51.40;;
55015;SDS011;40919;43.236;21.590;2023-03-01T16:20:12;78.35;;;52.50;;
55015;SDS011;40919;43.236;21.590;2023-03-01T16:22:40;83.65;;;58.10;;
55015;SDS011;40919;43.236;21.590;2023-03-01T16:25:08;95.55;;;66.88;;
55015;SDS011;40919;43.236;21.590;2023-03-01T16:27:38;101.95;;;72.28;;
55015;SDS011;40919;43.236;21.590;2023-03-01T16:30:07;104.25;;;73.05;;
55015;SDS011;40919;43.236;21.590;2023-03-01T16:32:37;86.80;;;63.72;;
55015;SDS011;40919;43.236;21.590;2023-03-01T16:35:04;108.00;;;72.55;;
55015;SDS011;40919;43.236;21.590;2023-03-01T16:37:32;92.45;;;66.95;;
55015;SDS011;40919;43.236;21.590;2023-03-01T16:39:58;93.97;;;68.25;;
55015;SDS011;40919;43.236;21.590;2023-03-01T16:42:24;77.47;;;56.05;;
55015;SDS011;40919;43.236;21.590;2023-03-01T16:44:57;76.10;;;52.20;;
55015;SDS011;40919;43.236;21.590;2023-03-01T16:47:22;73.20;;;50.00;;
55015;SDS011;40919;43.236;21.590;2023-03-01T16:49:52;68.28;;;48.40;;
55015;SDS011;40919;43.236;21.590;2023-03-01T16:52:18;67.32;;;47.70;;